Time;durP1;ratioP1;P1;durP2;ratioP2;P2;SDS_P1;SDS_P2;PMS_P1;PMS_P2;Temp;Humidity;BMP_temperature;BMP_pressure;BME280_temperature;BME280_humidity;BME280_pressure;Samples;Min_cycle;Max_cycle;Signal;HPM_P1;HPM_P2
2023/11/06 00:02:17;;;;;;;3.33;1.90;;;12.90;99.90;;;;;;5005826;28;20887;-31
2023/11/06 00:04:46;;;;;;;3.20;1.90;;;12.90;99.80;;;;;;5004453;28;20475;-26
2023/11/06 00:07:15;;;;;;;2.87;2.10;;;12.90;99.80;;;;;;5006255;28;20457;-31
2023/11/06 00:10:04;;;;;;;3.73;2.00;;;12.80;99.90;;;;;;5006555;28;20506;-30
2023/11/06 00:13:03;;;;;;;3.27;2.17;;;12.80;99.90;;;;;;4992437;28;20533;-29
2023/11/06 00:15:40;;;;;;;3.55;2.20;;;12.80;99.90;;;;;;5006090;28;20964;-34
2023/11/06 00:18:41;;;;;;;4.80;2.00;;;12.80;99.90;;;;;;5007021;28;20245;-31
2023/11/06 00:21:15;;;;;;;4.78;1.70;;;12.90;99.90;;;;;;4990129;28;20427;-33
2023/11/06 00:23:50;;;;;;;5.97;1.90;;;12.90;99.90;;;;;;5003088;28;20203;-34
2023/11/06 00:26:27;;;;;;;5.20;2.47;;;12.90;99.80;;;;;;5004874;28;21042;-28
2023/11/06 00:29:03;;;;;;;3.90;1.70;;;12.90;99.80;;;;;;5004728;28;20440;-34
2023/11/06 00:31:56;;;;;;;6.57;2.42;;;12.90;99.90;;;;;;5005239;28;20473;-34
2023/11/06 00:34:43;;;;;;;7.77;2.47;;;12.90;99.90;;;;;;5001194;28;20698;-30
2023/11/06 00:37:22;;;;;;;5.77;2.23;;;12.90;99.80;;;;;;5004667;28;20505;-33
2023/11/06 00:43:26;;;;;;;5.00;2.03;;;12.90;99.90;;;;;;4997599;28;20200;-29
2023/11/06 00:46:14;;;;;;;2.10;1.63;;;12.90;99.80;;;;;;4975907;28;20451;-30
2023/11/06 00:48:45;;;;;;;3.70;2.10;;;12.90;99.90;;;;;;4988083;28;20428;-31
2023/11/06 00:51:26;;;;;;;5.33;2.80;;;12.80;99.90;;;;;;4988278;28;20455;-33
2023/11/06 00:55:03;;;;;;;4.40;2.27;;;12.80;99.90;;;;;;4984262;28;20440;-28
2023/11/06 00:57:54;;;;;;;5.13;1.90;;;12.80;99.90;;;;;;5000971;28;20417;-30
2023/11/06 01:00:41;;;;;;;2.73;1.73;;;12.80;99.90;;;;;;5002964;28;20173;-29
2023/11/06 01:03:16;;;;;;;4.30;1.83;;;12.90;99.90;;;;;;4987841;28;20588;-26
2023/11/06 01:06:13;;;;;;;6.03;1.90;;;12.80;99.90;;;;;;4990885;28;20466;-28
2023/11/06 01:08:57;;;;;;;4.10;2.03;;;12.80;99.90;;;;;;5003959;28;20429;-31
2023/11/06 01:11:55;;;;;;;3.87;1.80;;;12.80;99.90;;;;;;5004491;28;20464;-29
2023/11/06 01:14:21;;;;;;;4.07;1.83;;;12.80;99.90;;;;;;4987015;28;20446;-36
2023/11/06 01:16:50;;;;;;;3.57;2.10;;;12.80;99.90;;;;;;5004203;28;20428;-31
2023/11/06 01:19:26;;;;;;;3.30;1.90;;;12.80;99.90;;;;;;5002757;28;20480;-32
2023/11/06 01:22:20;;;;;;;4.73;2.27;;;12.70;99.90;;;;;;4987931;28;20423;-28
2023/11/06 01:24:59;;;;;;;6.20;1.97;;;12.70;99.90;;;;;;5004986;28;20472;-31
2023/11/06 01:27:47;;;;;;;2.80;1.50;;;12.70;99.90;;;;;;4987724;28;20493;-25
2023/11/06 01:30:40;;;;;;;;;;;;;;;;;;;;;
2023/11/06 01:36:27;;;;;;;5.55;2.08;;;12.80;99.90;;;;;;4993204;28;20445;-35
2023/11/06 01:39:13;;;;;;;7.37;2.00;;;12.80;99.90;;;;;;4971824;28;20750;-30
2023/11/06 01:45:32;;;;;;;3.40;1.93;;;12.80;99.90;;;;;;4937579;28;20458;-30
2023/11/06 01:48:04;;;;;;;9.63;2.92;;;12.80;99.90;;;;;;5003964;28;20457;-35
2023/11/06 01:50:57;;;;;;;3.13;2.10;;;12.80;99.90;;;;;;4978698;28;20569;-32
2023/11/06 01:53:47;;;;;;;2.28;1.75;;;12.80;99.90;;;;;;5003157;28;20213;-29
2023/11/06 01:56:53;;;;;;;2.90;1.80;;;12.90;99.80;;;;;;4966725;28;20921;-30
2023/11/06 01:59:38;;;;;;;4.83;2.20;;;13.00;99.80;;;;;;4978480;28;20463;-28
2023/11/06 02:02:19;;;;;;;2.78;2.45;;;12.90;99.80;;;;;;4997197;28;20494;-34
2023/11/06 02:04:49;;;;;;;2.00;1.73;;;12.90;99.90;;;;;;4994914;28;20246;-28
2023/11/06 02:07:18;;;;;;;2.30;1.70;;;12.90;99.90;;;;;;4970984;28;20495;-25
2023/11/06 02:09:47;;;;;;;4.13;1.93;;;12.90;99.90;;;;;;5004197;28;20511;-35
2023/11/06 02:12:16;;;;;;;3.70;2.00;;;13.00;99.90;;;;;;4972083;28;20944;-27
2023/11/06 02:14:54;;;;;;;2.30;1.90;;;12.90;99.90;;;;;;4988951;28;20442;-32
2023/11/06 02:17:21;;;;;;;3.97;2.03;;;12.90;99.90;;;;;;4989117;28;20450;-29
2023/11/06 02:20:03;;;;;;;3.27;2.07;;;12.90;99.90;;;;;;4988004;28;21195;-31
2023/11/06 02:23:14;;;;;;;5.57;2.65;;;12.80;99.90;;;;;;4987164;28;20519;-29
2023/11/06 02:25:48;;;;;;;3.50;1.90;;;12.80;99.90;;;;;;4978458;28;20243;-31
2023/11/06 02:28:21;;;;;;;4.20;1.80;;;12.90;99.90;;;;;;4987464;28;20153;-33
2023/11/06 02:34:09;;;;;;;4.43;1.87;;;13.00;99.60;;;;;;5325372;22;20235;-30
2023/11/06 02:36:54;;;;;;;3.70;2.00;;;13.00;99.50;;;;;;4966643;28;20821;-29
2023/11/06 02:39:49;;;;;;;8.43;2.30;;;12.90;99.50;;;;;;4965206;28;20527;-27
2023/11/06 02:42:38;;;;;;;3.57;1.97;;;12.90;99.60;;;;;;4979832;28;20422;-31
2023/11/06 02:45:24;;;;;;;2.17;1.97;;;12.90;99.70;;;;;;4976557;28;20530;-28
2023/11/06 02:48:24;;;;;;;5.90;2.20;;;12.80;99.80;;;;;;4948910;28;20785;-29
2023/11/06 02:51:19;;;;;;;3.27;1.57;;;12.80;99.80;;;;;;4976202;28;20940;-27
2023/11/06 02:54:31;;;;;;;6.83;2.30;;;12.80;99.90;;;;;;4954307;28;20467;-32
2023/11/06 02:57:36;;;;;;;5.40;2.10;;;12.70;99.90;;;;;;4967044;28;20428;-29
2023/11/06 03:00:29;;;;;;;3.60;1.80;;;12.70;99.90;;;;;;4978779;28;20435;-33
2023/11/06 03:03:30;;;;;;;3.03;1.90;;;12.70;99.90;;;;;;4991523;28;20498;-29
2023/11/06 03:06:10;;;;;;;3.88;2.00;;;12.80;99.90;;;;;;4970237;28;20623;-30
2023/11/06 03:08:42;;;;;;;3.80;1.90;;;12.80;99.90;;;;;;4967284;28;20635;-27
2023/11/06 03:11:16;;;;;;;4.30;2.00;;;12.90;99.80;;;;;;4977957;28;20554;-26
2023/11/06 03:13:52;;;;;;;4.27;2.40;;;12.80;99.70;;;;;;4967050;28;20985;-29
2023/11/06 03:16:29;;;;;;;5.60;2.10;;;12.80;99.80;;;;;;4985759;28;20844;-26
2023/11/06 03:19:10;;;;;;;3.60;2.10;;;12.80;99.90;;;;;;4985003;28;20440;-32
2023/11/06 03:21:51;;;;;;;7.67;2.10;;;12.80;99.90;;;;;;4969054;28;20519;-27
2023/11/06 03:24:48;;;;;;;5.63;1.87;;;12.80;99.90;;;;;;4968258;28;20837;-32
2023/11/06 03:27:36;;;;;;;8.63;2.50;;;12.70;99.90;;;;;;4974097;28;20498;-30
2023/11/06 03:30:30;;;;;;;3.60;2.10;;;12.70;99.90;;;;;;4978673;28;20523;-28
2023/11/06 03:33:47;;;;;;;3.23;2.03;;;12.70;99.90;;;;;;4966816;28;21001;-27
2023/11/06 03:36:16;;;;;;;2.37;1.80;;;12.70;99.90;;;;;;4973325;28;20437;-28
2023/11/06 03:39:34;;;;;;;3.57;2.00;;;12.70;99.90;;;;;;4979732;28;20433;-31
2023/11/06 03:42:10;;;;;;;3.03;1.90;;;12.70;99.90;;;;;;4987667;28;20519;-30
2023/11/06 03:44:53;;;;;;;4.70;2.17;;;12.70;99.90;;;;;;4953123;28;20457;-27
2023/11/06 03:47:49;;;;;;;2.70;2.20;;;12.70;99.90;;;;;;4969309;28;20462;-27
2023/11/06 03:50:29;;;;;;;2.10;1.90;;;12.70;99.90;;;;;;4974341;28;20978;-29
2023/11/06 03:53:06;;;;;;;3.95;2.30;;;12.70;99.90;;;;;;4985421;28;20557;-28
2023/11/06 03:55:49;;;;;;;2.53;2.10;;;12.70;99.90;;;;;;4985220;28;20219;-29
2023/11/06 03:58:42;;;;;;;3.50;1.90;;;12.70;99.90;;;;;;4968807;28;21282;-30
2023/11/06 04:01:49;;;;;;;3.57;2.10;;;12.80;99.90;;;;;;4982094;28;20680;-30
2023/11/06 04:04:19;;;;;;;4.43;2.20;;;12.80;99.90;;;;;;4980951;28;20874;-33
2023/11/06 04:06:51;;;;;;;3.00;2.17;;;12.80;99.90;;;;;;4985538;28;20479;-27
2023/11/06 04:12:32;;;;;;;2.33;2.10;;;12.70;99.90;;;;;;4981538;28;20670;-27
2023/11/06 04:15:14;;;;;;;5.57;2.77;;;12.70;99.90;;;;;;4978997;28;20491;-30
2023/11/06 04:18:11;;;;;;;3.90;2.17;;;12.70;99.90;;;;;;4978855;28;20913;-29
2023/11/06 04:20:51;;;;;;;3.63;1.90;;;12.70;99.90;;;;;;4984398;28;20512;-28
2023/11/06 04:24:00;;;;;;;4.38;2.10;;;12.70;99.90;;;;;;4963124;28;20892;-30
2023/11/06 04:26:41;;;;;;;4.30;2.20;;;12.70;99.90;;;;;;4965783;28;20198;-29
2023/11/06 04:29:44;;;;;;;4.20;2.20;;;12.70;99.80;;;;;;4979601;28;20440;-27
2023/11/06 04:32:29;;;;;;;2.45;2.20;;;12.70;99.80;;;;;;4964227;28;20432;-29
2023/11/06 04:35:10;;;;;;;3.53;2.50;;;12.70;99.70;;;;;;4966358;28;20713;-27
2023/11/06 04:37:58;;;;;;;4.23;2.40;;;12.80;99.60;;;;;;4985393;28;20792;-27
2023/11/06 04:40:41;;;;;;;2.43;2.00;;;12.80;99.60;;;;;;4976899;28;20438;-27
2023/11/06 04:44:05;;;;;;;4.93;2.40;;;12.70;99.90;;;;;;4981550;28;20451;-29
2023/11/06 04:46:37;;;;;;;4.07;2.80;;;12.70;99.60;;;;;;4972990;28;20476;-29
2023/11/06 04:49:11;;;;;;;9.13;2.75;;;12.70;99.60;;;;;;4974311;28;20930;-30
2023/11/06 04:52:28;;;;;;;5.93;2.17;;;12.70;99.70;;;;;;4983121;28;20219;-29
2023/11/06 04:55:05;;;;;;;4.77;2.47;;;12.70;99.60;;;;;;4967206;28;21048;-30
2023/11/06 04:57:46;;;;;;;3.43;2.30;;;12.70;99.60;;;;;;5176303;23;20547;-32
2023/11/06 05:00:22;;;;;;;4.70;2.87;;;12.70;99.60;;;;;;5244962;22;20542;-27
2023/11/06 05:03:00;;;;;;;3.47;2.33;;;12.70;99.60;;;;;;4974142;28;20945;-27
2023/11/06 05:05:42;;;;;;;4.53;2.57;;;12.70;99.70;;;;;;4955024;28;20453;-26
2023/11/06 05:08:29;;;;;;;6.63;2.73;;;12.60;99.60;;;;;;4878950;29;21032;-27
2023/11/06 05:11:09;;;;;;;5.10;2.53;;;12.60;99.70;;;;;;4944105;28;20494;-25
2023/11/06 05:13:42;;;;;;;3.07;2.33;;;12.70;99.70;;;;;;4948297;28;20465;-26
2023/11/06 05:16:21;;;;;;;4.77;2.63;;;12.70;99.70;;;;;;4935083;29;21264;-26
2023/11/06 05:18:58;;;;;;;4.73;2.70;;;12.60;99.70;;;;;;4928624;28;20797;-26
2023/11/06 05:21:48;;;;;;;3.80;2.77;;;12.60;99.70;;;;;;4947011;28;20444;-26
2023/11/06 05:24:23;;;;;;;4.20;2.50;;;12.60;99.70;;;;;;4941444;28;20468;-27
2023/11/06 05:27:49;;;;;;;4.63;2.50;;;12.60;99.70;;;;;;4935326;29;20493;-26
2023/11/06 05:30:29;;;;;;;8.65;3.15;;;12.60;99.70;;;;;;4942579;28;20954;-27
2023/11/06 05:33:06;;;;;;;4.90;2.60;;;12.70;99.50;;;;;;4955373;28;20238;-27
2023/11/06 05:35:57;;;;;;;5.63;2.80;;;12.80;99.40;;;;;;4945092;28;20439;-27
2023/11/06 05:38:30;;;;;;;5.07;2.70;;;12.70;99.40;;;;;;4953734;28;20430;-26
2023/11/06 05:41:08;;;;;;;8.20;2.73;;;12.70;99.40;;;;;;4945300;28;20305;-26
2023/11/06 05:43:36;;;;;;;5.67;2.77;;;12.70;99.30;;;;;;4928383;29;20455;-26
2023/11/06 05:46:17;;;;;;;3.90;2.47;;;12.70;99.30;;;;;;4931245;28;20475;-26
2023/11/06 05:49:09;;;;;;;5.30;2.50;;;12.70;99.40;;;;;;4962073;28;20466;-27
2023/11/06 05:51:40;;;;;;;3.73;2.77;;;12.70;99.50;;;;;;4955421;28;20435;-27
2023/11/06 05:54:10;;;;;;;6.47;3.10;;;12.60;99.50;;;;;;4949060;28;20443;-26
2023/11/06 05:57:00;;;;;;;2.83;2.53;;;12.60;99.50;;;;;;4930802;29;21054;-26
2023/11/06 05:59:40;;;;;;;8.60;2.57;;;12.60;99.60;;;;;;4929000;29;20467;-27
2023/11/06 06:02:30;;;;;;;5.50;2.87;;;12.60;99.60;;;;;;4945326;29;20525;-26
2023/11/06 06:05:03;;;;;;;5.20;3.03;;;12.60;99.70;;;;;;4944733;28;20528;-26
2023/11/06 06:08:05;;;;;;;6.80;3.43;;;12.60;99.80;;;;;;4944701;28;20970;-27
2023/11/06 06:10:35;;;;;;;8.80;3.03;;;12.60;99.80;;;;;;4947367;28;20489;-27
2023/11/06 06:13:28;;;;;;;3.97;2.60;;;12.60;99.80;;;;;;4945209;28;21066;-26
2023/11/06 06:16:05;;;;;;;5.53;2.90;;;12.60;99.80;;;;;;4920673;29;20444;-26
2023/11/06 06:19:06;;;;;;;7.03;3.10;;;12.60;99.80;;;;;;4944826;29;20468;-26
2023/11/06 06:22:02;;;;;;;5.63;3.37;;;12.60;99.80;;;;;;4945573;29;20442;-27
2023/11/06 06:25:22;;;;;;;4.88;2.88;;;12.60;99.80;;;;;;4928051;28;21055;-26
2023/11/06 06:28:07;;;;;;;4.68;2.95;;;12.60;99.80;;;;;;4939531;28;20206;-27
2023/11/06 06:31:16;;;;;;;4.30;2.53;;;12.70;99.70;;;;;;4945361;28;20199;-26
2023/11/06 06:33:58;;;;;;;7.80;2.90;;;12.70;99.40;;;;;;4942885;29;20979;-25
2023/11/06 06:36:35;;;;;;;11.53;3.90;;;12.70;99.50;;;;;;4951923;28;20426;-26
2023/11/06 06:39:24;;;;;;;4.22;2.72;;;12.60;99.80;;;;;;4953869;28;20458;-25
2023/11/06 06:42:04;;;;;;;6.80;3.17;;;12.70;99.60;;;;;;4958960;28;20215;-27
2023/11/06 06:44:45;;;;;;;7.10;2.97;;;12.70;99.50;;;;;;4943665;28;20468;-27
2023/11/06 06:47:34;;;;;;;9.38;2.90;;;12.70;99.40;;;;;;4942621;28;20513;-26
2023/11/06 06:50:24;;;;;;;12.10;3.30;;;12.70;99.40;;;;;;4942426;29;20689;-26
2023/11/06 06:53:08;;;;;;;8.07;3.20;;;12.70;99.30;;;;;;4942323;29;20257;-26
2023/11/06 06:55:59;;;;;;;8.20;3.27;;;12.80;99.20;;;;;;4922504;29;21024;-26
2023/11/06 06:59:00;;;;;;;7.50;2.73;;;12.70;99.20;;;;;;4921091;29;20797;-27
2023/11/06 07:01:28;;;;;;;7.47;2.60;;;12.70;99.30;;;;;;4942766;29;20969;-26
2023/11/06 07:04:40;;;;;;;5.13;2.60;;;12.70;99.30;;;;;;4927000;29;20322;-27
2023/11/06 07:07:39;;;;;;;2.70;2.20;;;12.70;99.20;;;;;;4931336;28;20484;-27
2023/11/06 07:10:18;;;;;;;4.77;2.50;;;12.70;99.30;;;;;;4941686;28;20517;-26
2023/11/06 07:12:58;;;;;;;3.83;2.40;;;12.70;99.30;;;;;;4927623;29;20428;-27
2023/11/06 07:15:45;;;;;;;7.03;3.07;;;12.70;99.20;;;;;;4927009;28;20511;-26
2023/11/06 07:18:47;;;;;;;7.30;2.95;;;12.70;99.20;;;;;;4939443;28;20419;-25
2023/11/06 07:21:21;;;;;;;11.10;3.00;;;12.70;99.20;;;;;;4944507;28;20686;-27
2023/11/06 07:23:55;;;;;;;7.30;3.27;;;12.70;99.10;;;;;;4925558;29;20451;-27
2023/11/06 07:26:25;;;;;;;7.57;2.67;;;12.70;99.10;;;;;;4924996;29;20517;-26
2023/11/06 07:29:27;;;;;;;6.73;3.10;;;12.70;99.20;;;;;;4910884;29;20428;-27
2023/11/06 07:32:25;;;;;;;6.63;2.50;;;12.70;99.30;;;;;;4919741;29;20536;-26
2023/11/06 07:35:12;;;;;;;21.33;4.53;;;12.60;99.30;;;;;;4941561;28;20452;-26
2023/11/06 07:37:59;;;;;;;8.67;2.70;;;12.60;99.40;;;;;;4925757;29;20419;-27
2023/11/06 07:44:01;;;;;;;9.63;2.73;;;12.60;99.40;;;;;;4936345;28;20494;-26
2023/11/06 07:46:48;;;;;;;6.73;2.47;;;12.60;99.50;;;;;;4943967;29;20475;-26
2023/11/06 07:49:30;;;;;;;4.75;2.45;;;12.60;99.50;;;;;;4928283;29;20831;-26
2023/11/06 07:52:42;;;;;;;4.07;3.00;;;12.60;99.50;;;;;;4931786;28;20198;-26
2023/11/06 07:55:30;;;;;;;14.27;3.90;;;12.60;99.40;;;;;;4944489;28;21025;-26
2023/11/06 07:58:03;;;;;;;7.53;3.20;;;12.60;99.40;;;;;;4962611;28;20545;-26
2023/11/06 08:00:38;;;;;;;7.60;2.87;;;12.60;99.40;;;;;;4941483;28;20481;-26
2023/11/06 08:09:37;;;;;;;7.80;2.35;;;12.50;99.50;;;;;;4963545;28;20440;-26
2023/11/06 08:12:09;;;;;;;8.17;3.00;;;12.60;99.50;;;;;;4946942;28;20261;-27
2023/11/06 08:14:35;;;;;;;6.57;2.90;;;12.60;99.40;;;;;;4931688;29;20455;-26
2023/11/06 08:17:01;;;;;;;6.18;2.90;;;12.60;99.30;;;;;;4945019;29;20448;-26
2023/11/06 08:19:30;;;;;;;6.73;2.90;;;12.60;99.20;;;;;;4945679;29;20217;-26
2023/11/06 08:22:02;;;;;;;8.43;2.85;;;12.70;99.20;;;;;;4927011;29;20428;-27
2023/11/06 08:24:31;;;;;;;6.67;3.50;;;12.70;99.10;;;;;;4937381;28;20577;-25
2023/11/06 08:26:57;;;;;;;7.83;3.07;;;12.70;99.00;;;;;;4945031;29;20553;-27
2023/11/06 08:29:27;;;;;;;9.17;3.37;;;12.70;99.00;;;;;;4945433;29;20434;-27
2023/11/06 08:31:59;;;;;;;6.43;2.83;;;12.70;99.00;;;;;;4949821;28;20415;-27
2023/11/06 08:42:55;;;;;;;7.07;2.70;;;12.70;99.00;;;;;;5101111;23;20507;-36
2023/11/06 08:45:22;;;;;;;7.47;2.95;;;12.70;99.00;;;;;;4962147;28;20816;-37
2023/11/06 08:47:49;;;;;;;6.37;2.93;;;12.70;99.00;;;;;;4963356;28;20231;-31
2023/11/06 08:50:15;;;;;;;6.90;3.50;;;12.70;98.90;;;;;;4978277;28;20484;-33
2023/11/06 08:52:44;;;;;;;4.93;3.00;;;12.70;98.80;;;;;;4963519;28;20447;-33
2023/11/06 08:55:10;;;;;;;10.87;3.30;;;12.70;98.90;;;;;;4982076;28;20451;-30
2023/11/06 08:57:36;;;;;;;7.37;2.97;;;12.70;98.90;;;;;;4982491;28;21121;-33
2023/11/06 09:00:05;;;;;;;6.90;2.50;;;12.60;98.80;;;;;;4982229;28;20457;-34
2023/11/06 09:02:31;;;;;;;11.00;3.00;;;12.60;98.80;;;;;;4981150;28;20587;-32
2023/11/06 09:04:57;;;;;;;6.30;2.70;;;12.70;98.90;;;;;;4988186;28;20543;-37
2023/11/06 09:07:24;;;;;;;5.83;2.33;;;12.70;98.90;;;;;;4963843;28;20472;-34
2023/11/06 09:09:50;;;;;;;6.63;2.97;;;12.70;98.90;;;;;;4981677;28;20433;-36
2023/11/06 09:12:19;;;;;;;5.47;2.40;;;12.70;98.90;;;;;;4980660;28;20214;-32
2023/11/06 09:14:47;;;;;;;5.63;3.00;;;12.80;98.80;;;;;;4980775;28;20216;-35
2023/11/06 09:17:17;;;;;;;4.03;2.47;;;12.80;98.60;;;;;;4981954;28;20422;-32
2023/11/06 09:19:46;;;;;;;6.30;2.60;;;12.80;98.50;;;;;;4981913;28;20513;-32
2023/11/06 09:22:13;;;;;;;7.10;3.13;;;12.80;98.80;;;;;;4981423;28;20428;-37
2023/11/06 09:24:43;;;;;;;8.37;3.60;;;12.80;98.50;;;;;;4947093;28;20877;-30
2023/11/06 09:27:09;;;;;;;4.23;2.33;;;12.70;98.50;;;;;;4974659;28;20493;-33
2023/11/06 09:29:35;;;;;;;5.30;2.73;;;12.70;98.60;;;;;;4963788;28;20483;-34
2023/11/06 09:32:01;;;;;;;9.37;3.00;;;12.70;98.60;;;;;;4982031;28;20436;-34
2023/11/06 09:34:30;;;;;;;4.20;2.60;;;12.70;98.60;;;;;;4962430;28;21032;-35
2023/11/06 09:36:58;;;;;;;4.33;2.70;;;12.70;98.60;;;;;;4979310;28;20767;-32
2023/11/06 09:39:28;;;;;;;4.50;2.70;;;12.70;98.60;;;;;;4962551;28;20808;-38
2023/11/06 09:41:56;;;;;;;7.90;2.78;;;12.70;98.70;;;;;;4981176;28;20953;-31
2023/11/06 09:44:28;;;;;;;7.90;2.83;;;12.70;98.60;;;;;;4970315;28;20208;-34
2023/11/06 09:46:56;;;;;;;4.27;2.57;;;12.80;98.60;;;;;;4962845;28;20472;-34
2023/11/06 09:50:01;;;;;;;;;;;;;;;;;;;;;
2023/11/06 09:53:07;;;;;;;4.43;2.73;;;12.80;98.60;;;;;;4972029;28;20304;-32
2023/11/06 09:55:36;;;;;;;7.20;2.70;;;12.80;98.50;;;;;;4980399;28;20429;-36
2023/11/06 09:58:03;;;;;;;8.40;3.87;;;12.80;98.60;;;;;;4981684;28;20449;-38
2023/11/06 10:00:32;;;;;;;5.05;2.80;;;12.80;98.60;;;;;;4980072;28;20437;-34
2023/11/06 10:02:58;;;;;;;4.20;2.93;;;12.80;98.60;;;;;;4967086;28;20209;-36
2023/11/06 10:05:27;;;;;;;6.43;3.03;;;12.90;98.50;;;;;;4962748;28;20481;-32
2023/11/06 10:07:54;;;;;;;6.47;3.10;;;12.90;98.30;;;;;;4979611;28;20464;-36
2023/11/06 10:10:22;;;;;;;7.60;2.57;;;12.90;98.40;;;;;;4962714;28;20452;-31
2023/11/06 10:13:09;;;;;;;6.32;3.00;;;12.90;98.40;;;;;;4980214;28;20426;-34
2023/11/06 10:15:38;;;;;;;5.10;2.50;;;12.90;98.40;;;;;;4980872;28;20222;-34
2023/11/06 10:18:21;;;;;;;5.43;3.10;;;12.90;98.40;;;;;;4970661;28;20898;-31
2023/11/06 10:20:49;;;;;;;8.83;2.60;;;12.90;98.50;;;;;;4983542;28;20478;-35
2023/11/06 10:23:30;;;;;;;14.20;3.03;;;12.80;98.50;;;;;;4980552;28;20447;-36
2023/11/06 10:26:13;;;;;;;4.83;2.50;;;12.80;98.50;;;;;;4980599;28;20536;-36
2023/11/06 10:28:41;;;;;;;4.67;2.50;;;12.80;98.50;;;;;;4980305;28;20761;-30
2023/11/06 10:31:09;;;;;;;7.30;2.97;;;12.80;98.50;;;;;;4956476;28;21029;-33
2023/11/06 10:33:44;;;;;;;8.37;3.23;;;12.80;98.80;;;;;;4979119;28;20504;-30
2023/11/06 10:36:15;;;;;;;7.10;3.00;;;12.80;98.50;;;;;;4974093;28;20470;-38
2023/11/06 10:38:43;;;;;;;6.63;2.40;;;12.90;98.60;;;;;;4979882;28;20555;-33
2023/11/06 10:41:24;;;;;;;7.37;2.40;;;12.90;98.50;;;;;;4973202;28;20441;-32
2023/11/06 10:44:00;;;;;;;9.97;2.70;;;12.80;98.50;;;;;;4960648;28;20525;-30
2023/11/06 10:46:31;;;;;;;8.37;2.67;;;12.90;98.60;;;;;;4962902;28;20470;-31
2023/11/06 10:49:16;;;;;;;5.67;2.43;;;12.90;98.60;;;;;;4962706;28;20949;-34
2023/11/06 10:51:47;;;;;;;6.50;2.33;;;12.90;98.60;;;;;;4980478;28;20429;-35
2023/11/06 10:54:16;;;;;;;7.22;2.90;;;12.90;98.60;;;;;;4979391;28;20451;-32
2023/11/06 10:56:42;;;;;;;3.37;2.10;;;12.90;98.60;;;;;;4958702;28;20215;-33
2023/11/06 10:59:08;;;;;;;8.57;3.43;;;13.00;98.50;;;;;;4979634;28;20425;-37
2023/11/06 11:01:37;;;;;;;4.17;2.43;;;13.00;98.30;;;;;;4980457;28;20440;-30
2023/11/06 11:04:08;;;;;;;4.33;2.40;;;13.00;98.20;;;;;;4965498;28;20533;-33
2023/11/06 11:06:41;;;;;;;3.47;2.38;;;13.00;98.20;;;;;;4987588;28;20484;-36
2023/11/06 11:09:11;;;;;;;5.47;2.50;;;13.00;98.20;;;;;;4962464;28;20223;-30
2023/11/06 11:11:39;;;;;;;9.67;2.60;;;13.00;98.10;;;;;;4980513;28;20827;-29
2023/11/06 11:14:09;;;;;;;6.93;2.47;;;13.00;98.10;;;;;;4972535;28;20517;-31
2023/11/06 11:16:49;;;;;;;6.43;2.57;;;13.00;98.20;;;;;;4971131;28;20443;-33
2023/11/06 11:19:19;;;;;;;5.83;2.30;;;13.00;98.10;;;;;;4975017;28;20416;-32
2023/11/06 11:22:04;;;;;;;5.40;2.47;;;13.00;98.10;;;;;;4965095;28;20910;-34
2023/11/06 11:24:45;;;;;;;5.73;2.40;;;13.00;98.20;;;;;;4982927;28;20454;-34
2023/11/06 11:27:18;;;;;;;4.10;1.90;;;13.00;98.10;;;;;;4977751;28;20550;-36
2023/11/06 11:29:53;;;;;;;6.60;2.50;;;13.00;98.10;;;;;;4965637;28;20471;-34
2023/11/06 11:32:49;;;;;;;5.70;2.30;;;13.00;98.10;;;;;;4956106;28;20627;-35
2023/11/06 11:35:17;;;;;;;4.20;2.90;;;13.00;98.10;;;;;;4960852;28;20455;-36
2023/11/06 11:37:59;;;;;;;5.97;2.10;;;13.00;98.20;;;;;;4983820;28;21059;-29
2023/11/06 11:40:40;;;;;;;3.57;2.40;;;13.00;98.20;;;;;;4965764;28;20431;-34
2023/11/06 11:43:36;;;;;;;4.30;2.00;;;13.00;98.20;;;;;;4978015;28;20528;-30
2023/11/06 11:46:02;;;;;;;6.70;2.23;;;13.00;98.20;;;;;;4983346;28;20457;-30
2023/11/06 11:48:53;;;;;;;4.40;2.37;;;13.00;98.20;;;;;;4983205;28;20445;-35
2023/11/06 11:51:47;;;;;;;6.45;2.72;;;13.00;98.20;;;;;;4949245;28;20496;-34
2023/11/06 11:54:42;;;;;;;4.10;2.10;;;13.10;98.10;;;;;;4981612;28;20322;-30
2023/11/06 11:57:09;;;;;;;4.37;1.50;;;13.10;98.00;;;;;;4980964;28;20456;-35
2023/11/06 11:59:50;;;;;;;5.23;2.60;;;13.10;98.00;;;;;;4982627;28;20433;-32
2023/11/06 12:02:43;;;;;;;3.67;1.97;;;13.10;98.00;;;;;;4960053;28;20423;-29
2023/11/06 12:05:13;;;;;;;3.63;2.30;;;13.10;98.00;;;;;;4979575;28;20479;-35
2023/11/06 12:07:46;;;;;;;4.13;2.20;;;13.10;98.10;;;;;;4964595;28;20604;-30
2023/11/06 12:10:16;;;;;;;4.50;1.87;;;13.10;98.10;;;;;;4982767;28;20480;-32
2023/11/06 12:12:46;;;;;;;2.97;2.30;;;13.10;98.10;;;;;;4982388;28;20450;-28
2023/11/06 12:15:12;;;;;;;3.77;2.17;;;13.10;98.00;;;;;;4984089;28;20441;-35
2023/11/06 12:17:40;;;;;;;3.47;1.95;;;13.10;98.00;;;;;;4982035;28;20520;-33
2023/11/06 12:20:15;;;;;;;2.83;1.90;;;13.10;98.00;;;;;;4964798;28;20212;-33
2023/11/06 12:22:48;;;;;;;5.10;2.30;;;13.20;97.80;;;;;;4982714;28;20201;-38
2023/11/06 12:25:27;;;;;;;3.37;2.07;;;13.30;97.70;;;;;;4948497;28;20460;-37
2023/11/06 12:28:04;;;;;;;4.00;2.10;;;13.30;97.70;;;;;;4981990;28;20520;-38
2023/11/06 12:30:36;;;;;;;2.53;2.30;;;13.30;97.70;;;;;;4981560;28;20463;-36
2023/11/06 12:33:13;;;;;;;3.47;2.27;;;13.20;97.70;;;;;;4964479;28;20453;-38
2023/11/06 12:35:43;;;;;;;2.70;1.90;;;13.20;97.70;;;;;;4982402;28;20431;-37
2023/11/06 12:38:11;;;;;;;3.60;2.33;;;13.20;97.70;;;;;;4976077;28;20430;-33
2023/11/06 12:40:45;;;;;;;2.60;1.93;;;13.20;97.70;;;;;;4981966;28;20502;-36
2023/11/06 12:43:18;;;;;;;2.60;1.80;;;13.20;97.80;;;;;;4981815;28;20993;-36
2023/11/06 12:45:47;;;;;;;4.30;2.23;;;13.20;97.80;;;;;;4981178;28;20459;-34
2023/11/06 12:48:30;;;;;;;2.40;1.90;;;13.20;97.80;;;;;;4982445;28;21009;-38
2023/11/06 12:51:07;;;;;;;2.67;2.20;;;13.20;97.90;;;;;;4981653;28;20440;-35
2023/11/06 12:53:34;;;;;;;4.63;2.27;;;13.30;97.90;;;;;;4981646;28;20451;-39
2023/11/06 12:56:00;;;;;;;3.00;1.83;;;13.30;97.90;;;;;;4981138;28;20436;-35
2023/11/06 12:58:34;;;;;;;2.10;1.90;;;13.30;97.90;;;;;;4981834;28;20930;-35
2023/11/06 13:01:04;;;;;;;2.22;1.77;;;13.30;98.00;;;;;;4980531;28;20637;-37
2023/11/06 13:03:34;;;;;;;2.17;1.80;;;13.30;98.00;;;;;;4963857;28;20213;-38
2023/11/06 13:06:01;;;;;;;4.67;1.90;;;13.30;98.30;;;;;;4980007;28;20444;-34
2023/11/06 13:08:34;;;;;;;1.73;1.60;;;13.30;97.90;;;;;;4987904;28;20854;-34
2023/11/06 13:11:03;;;;;;;2.53;1.80;;;13.30;97.90;;;;;;4972316;28;20502;-35
2023/11/06 13:13:31;;;;;;;3.30;1.77;;;13.30;98.00;;;;;;4963322;28;20492;-34
2023/11/06 13:16:00;;;;;;;3.93;2.27;;;13.30;98.00;;;;;;4981362;28;20425;-35
2023/11/06 13:18:27;;;;;;;2.47;1.93;;;13.30;98.00;;;;;;4981032;28;20887;-37
2023/11/06 13:20:54;;;;;;;1.90;1.80;;;13.40;97.90;;;;;;4948010;28;20439;-38
2023/11/06 13:23:25;;;;;;;3.43;2.00;;;13.40;97.90;;;;;;4982259;28;20441;-31
2023/11/06 13:25:54;;;;;;;3.17;2.23;;;13.40;97.90;;;;;;4964509;28;20453;-36
2023/11/06 13:28:22;;;;;;;2.47;1.60;;;13.40;97.90;;;;;;4982236;28;20436;-35
2023/11/06 13:30:53;;;;;;;4.87;2.27;;;13.30;97.90;;;;;;4963379;28;20470;-38
2023/11/06 13:33:21;;;;;;;2.20;2.00;;;13.40;98.00;;;;;;4982041;28;20538;-33
2023/11/06 13:35:51;;;;;;;4.77;2.27;;;13.30;97.90;;;;;;4983977;28;20496;-33
2023/11/06 13:38:18;;;;;;;7.50;1.80;;;13.30;97.80;;;;;;4966409;28;20484;-33
2023/11/06 13:40:46;;;;;;;1.67;1.57;;;13.30;97.80;;;;;;4963082;28;20519;-38
2023/11/06 13:43:18;;;;;;;4.53;2.10;;;13.40;97.80;;;;;;4980296;28;20441;-33
2023/11/06 13:45:45;;;;;;;3.77;1.80;;;13.40;97.80;;;;;;4982119;28;20483;-36
2023/11/06 13:48:13;;;;;;;3.50;1.90;;;13.40;97.70;;;;;;4991011;28;20552;-36
2023/11/06 13:50:50;;;;;;;2.23;1.80;;;13.40;97.60;;;;;;4988892;28;20536;-32
2023/11/06 13:53:23;;;;;;;3.73;2.20;;;13.50;97.60;;;;;;4963134;28;20451;-36
2023/11/06 13:56:11;;;;;;;3.23;2.07;;;13.40;97.50;;;;;;4980226;28;20820;-34
2023/11/06 13:58:38;;;;;;;2.90;1.70;;;13.40;97.50;;;;;;4981150;28;20425;-35
2023/11/06 14:01:07;;;;;;;3.40;2.10;;;13.40;97.40;;;;;;4981056;28;20938;-36
2023/11/06 14:03:34;;;;;;;2.67;1.90;;;13.40;97.40;;;;;;4962822;28;20452;-35
2023/11/06 14:06:00;;;;;;;2.93;1.90;;;13.40;97.20;;;;;;4980912;28;20868;-37
2023/11/06 14:08:27;;;;;;;3.23;1.93;;;13.40;97.10;;;;;;4981116;28;20448;-36
2023/11/06 14:10:55;;;;;;;2.07;1.87;;;13.40;97.00;;;;;;4963008;28;20492;-33
2023/11/06 14:13:21;;;;;;;4.60;1.90;;;13.50;97.00;;;;;;4962734;28;20781;-34
2023/11/06 14:15:55;;;;;;;6.47;2.80;;;13.50;97.00;;;;;;4963255;28;20785;-31
2023/11/06 14:18:25;;;;;;;2.40;1.50;;;13.50;97.00;;;;;;4982322;28;20452;-29
2023/11/06 14:20:56;;;;;;;2.93;1.60;;;13.50;96.90;;;;;;4980735;28;20469;-28
2023/11/06 14:23:27;;;;;;;2.40;1.63;;;13.50;96.90;;;;;;4982191;28;20448;-28
2023/11/06 14:25:58;;;;;;;2.40;1.90;;;13.50;96.90;;;;;;4979899;28;20433;-31